Flight Track Log - Related Links

Times and Time Zones

All times are in EDT time to prevent confusion due to time zone crossing. See the ADR704 flight status page for this flight to view local times or setup timezone preferences in your user account.

Time Position Orientation Groundspeed Altitude Reporting Facility
EDT Latitude Longitude Course Direction KTS MPH feet Rate Location/Type
Thu 07:50:00 AM 45.7900 14.9808 140° Southeast  Level Estimated
Thu 07:51:00 AM 45.7174 15.0673 140° Southeast  Level Estimated
Thu 07:52:00 AM 45.6449 15.1534 140° Southeast  Level Estimated
Thu 07:53:00 AM 45.5722 15.2394 140° Southeast  Level Estimated
Thu 07:54:00 AM 45.4995 15.3251 140° Southeast  Level Estimated
Thu 07:55:00 AM 45.4267 15.4107 140° Southeast  Level Estimated
Thu 07:56:00 AM 45.3539 15.4960 141° Southeast  Level Estimated
Thu 07:57:00 AM 45.2810 15.5810 141° Southeast  Level Estimated
Thu 07:58:00 AM 45.2080 15.6659 141° Southeast  Level Estimated
Thu 07:59:00 AM 45.1350 15.7506 141° Southeast  Level Estimated
Thu 08:00:00 AM 45.0619 15.8350 141° Southeast  Level Estimated
Thu 08:01:00 AM 44.9887 15.9192 141° Southeast  Level Estimated
Thu 08:02:00 AM 44.9155 16.0032 141° Southeast  Level Estimated
Thu 08:03:00 AM 44.8423 16.0870 141° Southeast  Level Estimated
Thu 08:04:00 AM 44.7689 16.1705 141° Southeast  Level Estimated
Thu 08:05:00 AM 44.6955 16.2539 141° Southeast  Level Estimated
Thu 08:06:00 AM 44.6221 16.3370 141° Southeast  Level Estimated
Thu 08:07:00 AM 44.5485 16.4200 141° Southeast  Level Estimated
Thu 08:08:00 AM 44.4749 16.5027 141° Southeast  Level Estimated
Thu 08:09:00 AM 44.4013 16.5852 141° Southeast  Level Estimated
Thu 08:10:00 AM 44.3276 16.6675 141° Southeast  Level Estimated
Thu 08:11:00 AM 44.2538 16.7497 141° Southeast  Level Estimated
Thu 08:12:00 AM 44.1800 16.8316 141° Southeast  Level Estimated
Thu 08:13:00 AM 44.1062 16.9133 142° Southeast  Level Estimated
Thu 08:14:00 AM 44.0322 16.9947 142° Southeast  Level Estimated
Thu 08:15:00 AM 43.9582 17.0760 142° Southeast  Level Estimated
Thu 08:16:00 AM 43.8842 17.1571 142° Southeast  Level Estimated
Thu 08:17:00 AM 43.8101 17.2380 142° Southeast  Level Estimated
Thu 08:18:00 AM 43.7359 17.3187 142° Southeast  Level Estimated
Thu 08:19:00 AM 43.6617 17.3992 142° Southeast  Level Estimated
Thu 08:20:00 AM 43.5874 17.4795 142° Southeast  Level Estimated
Thu 08:21:00 AM 43.5131 17.5595 142° Southeast  Level Estimated
Thu 08:22:00 AM 43.4387 17.6394 142° Southeast  Level Estimated
Thu 08:23:00 AM 43.3643 17.7191 142° Southeast  Level Estimated
Thu 08:24:00 AM 43.2898 17.7986 142° Southeast  Level Estimated
Thu 08:25:00 AM 43.2152 17.8779 142° Southeast  Level Estimated
Thu 08:26:00 AM 43.1406 17.9570 142° Southeast  Level Estimated
Thu 08:27:00 AM 43.0660 18.0360 142° Southeast  Level Estimated
Thu 08:28:00 AM 42.9913 18.1147 142° Southeast  Level Estimated
Thu 08:29:00 AM 42.9165 18.1932 142° Southeast  Level Estimated
Thu 08:30:00 AM 42.8417 18.2716 142° Southeast  Level Estimated
Thu 08:31:00 AM 42.7668 18.3497 143° Southeast  Level Estimated
Thu 08:32:00 AM 42.6919 18.4277 143° Southeast  Level Estimated
Thu 08:33:00 AM 42.6169 18.5055 143° Southeast  Level Estimated
Thu 08:34:00 AM 42.5419 18.5830 143° Southeast  Level Estimated
Thu 08:35:00 AM 42.4668 18.6604 143° Southeast  Level Estimated
Thu 08:36:00 AM 42.3916 18.7377 143° Southeast  Level Estimated
Thu 08:37:00 AM 42.3164 18.8147 143° Southeast  Level Estimated
Thu 08:38:00 AM 42.2412 18.8916 143° Southeast  Level Estimated
Thu 08:39:00 AM 42.1659 18.9682 143° Southeast  Level Estimated
Thu 08:40:00 AM 42.0906 19.0447 143° Southeast  Level Estimated
Thu 08:41:00 AM 42.0152 19.1210 143° Southeast  Level Estimated
Thu 08:42:00 AM 41.9398 19.1971 143° Southeast  Level Estimated
Thu 08:43:00 AM 41.8643 19.2731 143° Southeast  Level Estimated
Thu 08:44:00 AM 41.7887 19.3488 143° Southeast  Level Estimated
Thu 08:45:00 AM 41.7131 19.4244 143° Southeast  Level Estimated
Thu 08:46:00 AM 41.6375 19.4998 143° Southeast  Level Estimated
Thu 08:47:00 AM 41.5618 19.5751 143° Southeast  Level Estimated
Thu 08:48:00 AM 41.4861 19.6501 143° Southeast  Level Estimated
Thu 08:49:00 AM 41.4147 19.7206 143° Southeast  Level Estimated
Thu 08:50:00 AM 41.4147 19.7206 21° North  Level Estimated
Thu 08:51:00 AM 41.4147 19.7206 21° North  Level Estimated
Thu 08:52:00 AM 41.4147 19.7206 21° North  Level Estimated
Thu 08:53:00 AM 41.4147 19.7206 21° North  Level Estimated
Thu 08:54:00 AM 41.4147 19.7206 21° North  Level Estimated
Thu 08:55:00 AM 41.4147 19.7206 21° North  Level Estimated
Thu 08:56:00 AM 41.4147 19.7206 21° North  Level Estimated
Thu 08:57:00 AM 41.4147 19.7206 21° North  Level Estimated
Thu 08:58:00 AM 41.4147 19.7206 21° North  Level Estimated
Thu 08:59:00 AM 41.4147 19.7206 21° North  Level Estimated
Thu 09:00:00 AM 41.4147 19.7206 21° North  Level Estimated
Thu 09:01:00 AM 41.4147 19.7206 21° North  Level Estimated
Thu 09:02:00 AM 41.4147 19.7206 21° North  Level Estimated
Thu 09:03:00 AM 41.4147 19.7206 21° North  Level Estimated
Thu 09:04:00 AM 41.4147 19.7206 21° North  Level Estimated
Thu 09:05:00 AM 41.4147 19.7206 21° North  Level Estimated

Login

Don't have an account? Register now (free) for customized features, flight alerts, and more!